Flight Track Log - Related Links

Times and Time Zones

All times are in EDT time to prevent confusion due to time zone crossing. See the SKW4632 flight status page for this flight to view local times or setup timezone preferences in your user account.

Time Position Orientation Groundspeed Altitude Reporting Facility
EDT Latitude Longitude Course Direction KTS MPH feet Rate Location/Type
Mon 03:13:19 PM 46.9994 -114.2425 309° West 266 306 5,700  Level Salt Lake Center
Mon 03:14:00 PM 46.6546 -113.9905 180° South  Level Estimated
Mon 03:14:21 PM 47.0425 -114.3450 302° West 283 326 8,500  Level Salt Lake Center
Mon 03:15:00 PM 46.5674 -113.9574 180° South  Level Estimated
Mon 03:15:23 PM 46.9869 -114.4156 221° Southwest 284 327 10,900  Level Salt Lake Center
Mon 03:16:00 PM 46.4859 -114.0133 205° Southwest  Level FlightAware Approximate
Mon 03:16:25 PM 46.8992 -114.4042 175° South 299 344 12,500  Level Salt Lake Center
Mon 03:17:00 PM 46.3988 -113.9790 180° South  Level Estimated
Mon 03:17:27 PM 46.8042 -114.3867 173° South 322 371 14,100  Level Salt Lake Center
Mon 03:18:29 PM 46.7100 -114.3714 174° South 340 391 15,600 1,645 Climbing Salt Lake Center
Mon 03:19:31 PM 46.6044 -114.3531 173° South 356 410 17,500 1,632 Climbing Salt Lake Center
Mon 03:20:34 PM 46.5092 -114.3347 172° South 348 400 19,000 1,344 Climbing Salt Lake Center
Mon 03:21:36 PM 46.4108 -114.3194 174° South 356 410 20,300 1,210 Climbing Salt Lake Center
Mon 03:22:38 PM 46.3022 -114.2989 173° South 364 419 21,500 1,065 Climbing Salt Lake Center
Mon 03:23:40 PM 46.2014 -114.2825 174° South 367 422 22,500 968 Climbing Salt Lake Center
Mon 03:24:42 PM 46.0992 -114.2661 174° South 371 427 23,500 871 Climbing Salt Lake Center
Mon 03:25:44 PM 45.9958 -114.2481 173° South 375 432 24,300 677 Climbing Salt Lake Center
Mon 03:26:46 PM 45.8900 -114.2306 173° South 382 440 24,900 629 Climbing Salt Lake Center
Mon 03:27:48 PM 45.7825 -114.2103 173° South 388 447 25,600 629 Climbing Salt Lake Center
Mon 03:28:50 PM 45.6589 -114.1458 160° South 396 456 26,200 677 Climbing Salt Lake Center
Mon 03:29:52 PM 45.5631 -114.0936 159° South 399 459 27,000 581 Climbing Salt Lake Center
Mon 03:31:00 PM 45.4585 -114.0325 158° South  Level FlightAware Approximate
Mon 03:31:56 PM 45.3558 -113.9425 158° South 408 470 28,000  Level Salt Lake Center
Mon 03:32:58 PM 45.2439 -113.8369 146° Southeast 424 488 28,200 484 Climbing Salt Lake Center
Mon 03:34:00 PM 45.1492 -113.7464 146° Southeast 429 494 29,000 387 Climbing Salt Lake Center
Mon 03:35:02 PM 45.0403 -113.6411 146° Southeast 427 491 29,000 435 Level Salt Lake Center
Mon 03:36:04 PM 44.9436 -113.5508 147° Southeast 431 496 29,900 823 Climbing Salt Lake Center
Mon 03:37:06 PM 44.8319 -113.4619 151° Southeast 425 489 30,700 532 Climbing Salt Lake Center
Mon 03:38:08 PM 44.7258 -113.4156 163° South 425 489 31,000 145 Climbing Salt Lake Center
Mon 03:39:10 PM 44.6000 -113.3628 163° South 421 484 31,000  Level Salt Lake Center
Mon 03:40:12 PM 44.4883 -113.3156 163° South 434 499 31,000  Level Salt Lake Center
Mon 03:41:14 PM 44.3558 -113.2594 163° South 445 512 31,000  Level Salt Lake Center
Mon 03:42:16 PM 44.2397 -113.2103 163° South 452 520 31,000  Level Salt Lake Center
Mon 03:43:18 PM 44.1042 -113.1558 164° South 454 522 31,000  Level Salt Lake Center
Mon 03:44:20 PM 43.9858 -113.1286 171° South 452 520 31,000  Level Salt Lake Center
Mon 03:45:22 PM 43.8672 -113.1022 171° South 452 520 31,000  Level Salt Lake Center
Mon 03:46:24 PM 43.7286 -113.0714 171° South 453 521 31,000  Level Salt Lake Center
Mon 03:47:26 PM 43.6106 -113.0458 171° South 450 518 31,000  Level Salt Lake Center
Mon 03:48:28 PM 43.4725 -113.0139 170° South 450 518 31,000  Level Salt Lake Center
Mon 03:49:30 PM 43.3544 -112.9797 168° South 453 521 31,000  Level Salt Lake Center
Mon 03:50:32 PM 43.2169 -112.9422 169° South 451 519 31,000  Level Salt Lake Center
Mon 03:51:34 PM 43.0986 -112.9072 168° South 454 522 31,000  Level Salt Lake Center
Mon 03:52:36 PM 42.9625 -112.8697 169° South 450 518 31,000  Level Salt Lake Center
Mon 03:53:39 PM 42.8456 -112.8389 169° South 448 516 31,000  Level Salt Lake Center
Mon 03:54:41 PM 42.7083 -112.8031 169° South 449 517 31,000  Level Salt Lake Center
Mon 03:55:43 PM 42.5914 -112.7711 169° South 448 516 31,000  Level Salt Lake Center
Mon 03:56:45 PM 42.4692 -112.7383 169° South 450 518 31,000  Level Salt Lake Center
Mon 03:57:47 PM 42.3464 -112.7053 169° South 449 517 31,000 -677 Level Salt Lake Center
Mon 03:58:49 PM 42.1997 -112.6653 169° South 450 518 29,600 -2,177 Descending Salt Lake Center
Mon 03:59:51 PM 42.0758 -112.6331 169° South 454 522 26,500 -2,952 Descending Salt Lake Center
Mon 04:00:53 PM 41.9553 -112.6000 168° South 446 513 23,500 -2,903 Descending Salt Lake Center
Mon 04:01:55 PM 41.8325 -112.5692 169° South 449 517 20,500 -2,806 Descending Salt Lake Center
Mon 04:02:57 PM 41.7150 -112.5378 169° South 440 506 17,700 -2,523 Descending Salt Lake Center
Mon 04:03:42 PM 41.6225 -112.5069 166° South 408 470 16,000 -1,030 Descending Salt Lake Center
Mon 04:04:36 PM 41.5425 -112.4822 167° South 326 375 16,000 -417 Level Salt Lake Center
Mon 04:05:37 PM 41.4681 -112.4186 147° Southeast 318 366 15,200 -984 Descending Salt Lake Center
Mon 04:06:38 PM 41.4092 -112.3356 133° Southeast 312 359 14,000 -1,180 Descending Salt Lake Center
Mon 04:07:39 PM 41.3489 -112.2561 135° Southeast 308 354 12,800 -1,190 Descending Salt Lake Center
Mon 04:08:34 PM 41.2931 -112.1781 134° Southeast 311 358 11,700 -1,067 Descending Salt Lake Center
Mon 04:09:09 PM 41.2642 -112.1425 137° Southeast 310 357 11,200 -575 Descending Salt Lake Center
Mon 04:09:47 PM 41.2203 -112.0800 133° Southeast 304 350 11,000 -140 Descending Salt Lake Center
Mon 04:10:35 PM 41.1733 -112.0164 134° Southeast 293 337 11,000 -837 Level Salt Lake Center
Mon 04:11:13 PM 41.1314 -111.9883 153° Southeast 288 331 9,800 -1,726 Descending Salt Lake Center
Mon 04:11:48 PM 41.0872 -111.9717 164° South 284 327 8,900 -1,385 Descending Salt Lake Center
Mon 04:12:31 PM 41.0294 -111.9631 174° South 275 316 8,000 -1,213 Descending Salt Lake Center
Mon 04:13:17 PM 40.9831 -111.9622 179° South 275 316 7,100 -881 Descending Salt Lake Center
Mon 04:14:20 PM 40.9019 -111.9622 180° South 237 273 6,400 -912 Descending Salt Lake Center
Mon 04:15:22 PM 40.8500 -111.9622 180° South 182 209 5,200 -919 Descending Salt Lake Center
Mon 04:16:24 PM 40.8086 -111.9619 180° South 149 171 4,500 -677 Descending Salt Lake Center

Login

Don't have an account? Register now (free) for customized features, flight alerts, and more!